sensor_id;sensor_type;location;lat;lon;timestamp;P1;durP1;ratioP1;P2;durP2;ratioP2
54517;SDS011;40423;53.176;6.002;2023-05-15T00:00:41;25.35;;;21.63;;
54517;SDS011;40423;53.176;6.002;2023-05-15T00:03:08;29.50;;;23.38;;
54517;SDS011;40423;53.176;6.002;2023-05-15T00:05:36;32.47;;;24.42;;
54517;SDS011;40423;53.176;6.002;2023-05-15T00:08:01;30.13;;;23.25;;
54517;SDS011;40423;53.176;6.002;2023-05-15T00:10:27;29.52;;;22.95;;
54517;SDS011;40423;53.176;6.002;2023-05-15T00:12:53;32.97;;;24.17;;
54517;SDS011;40423;53.176;6.002;2023-05-15T00:15:19;33.33;;;24.42;;
54517;SDS011;40423;53.176;6.002;2023-05-15T00:17:45;33.40;;;24.08;;
54517;SDS011;40423;53.176;6.002;2023-05-15T00:20:11;36.78;;;27.25;;
54517;SDS011;40423;53.176;6.002;2023-05-15T00:22:37;38.53;;;27.25;;
54517;SDS011;40423;53.176;6.002;2023-05-15T00:25:02;35.10;;;26.40;;
54517;SDS011;40423;53.176;6.002;2023-05-15T00:27:28;34.63;;;26.52;;
54517;SDS011;40423;53.176;6.002;2023-05-15T00:29:54;36.42;;;25.48;;
54517;SDS011;40423;53.176;6.002;2023-05-15T00:32:20;43.22;;;30.30;;
54517;SDS011;40423;53.176;6.002;2023-05-15T00:34:45;40.10;;;27.45;;
54517;SDS011;40423;53.176;6.002;2023-05-15T00:37:11;36.45;;;27.75;;
54517;SDS011;40423;53.176;6.002;2023-05-15T00:39:37;37.40;;;27.27;;
54517;SDS011;40423;53.176;6.002;2023-05-15T00:42:03;39.72;;;28.42;;
54517;SDS011;40423;53.176;6.002;2023-05-15T00:44:30;34.10;;;23.98;;
54517;SDS011;40423;53.176;6.002;2023-05-15T00:46:58;30.90;;;23.98;;
54517;SDS011;40423;53.176;6.002;2023-05-15T00:49:25;33.45;;;22.80;;
54517;SDS011;40423;53.176;6.002;2023-05-15T00:51:53;32.33;;;23.33;;
54517;SDS011;40423;53.176;6.002;2023-05-15T00:54:23;31.50;;;23.15;;
54517;SDS011;40423;53.176;6.002;2023-05-15T00:56:49;34.92;;;25.42;;
54517;SDS011;40423;53.176;6.002;2023-05-15T00:59:16;33.85;;;25.63;;
54517;SDS011;40423;53.176;6.002;2023-05-15T01:01:43;32.85;;;23.92;;
54517;SDS011;40423;53.176;6.002;2023-05-15T01:04:09;32.50;;;23.90;;
54517;SDS011;40423;53.176;6.002;2023-05-15T01:06:35;30.95;;;21.85;;
54517;SDS011;40423;53.176;6.002;2023-05-15T01:09:02;30.80;;;23.05;;
54517;SDS011;40423;53.176;6.002;2023-05-15T01:11:32;33.00;;;24.95;;
54517;SDS011;40423;53.176;6.002;2023-05-15T01:14:02;33.03;;;23.20;;
54517;SDS011;40423;53.176;6.002;2023-05-15T01:16:32;35.42;;;25.65;;
54517;SDS011;40423;53.176;6.002;2023-05-15T01:18:58;36.42;;;25.00;;
54517;SDS011;40423;53.176;6.002;2023-05-15T01:27:04;35.97;;;27.08;;
54517;SDS011;40423;53.176;6.002;2023-05-15T01:35:30;34.85;;;24.30;;
54517;SDS011;40423;53.176;6.002;2023-05-15T01:40:31;35.65;;;25.13;;
54517;SDS011;40423;53.176;6.002;2023-05-15T01:42:59;35.65;;;25.05;;
54517;SDS011;40423;53.176;6.002;2023-05-15T01:45:30;29.98;;;21.27;;
54517;SDS011;40423;53.176;6.002;2023-05-15T01:47:57;29.17;;;22.55;;
54517;SDS011;40423;53.176;6.002;2023-05-15T01:50:24;30.60;;;23.17;;
54517;SDS011;40423;53.176;6.002;2023-05-15T01:52:55;29.30;;;23.10;;
54517;SDS011;40423;53.176;6.002;2023-05-15T01:55:22;30.50;;;23.17;;
54517;SDS011;40423;53.176;6.002;2023-05-15T01:57:51;37.90;;;27.05;;
54517;SDS011;40423;53.176;6.002;2023-05-15T02:00:17;33.53;;;24.08;;
54517;SDS011;40423;53.176;6.002;2023-05-15T02:02:43;33.83;;;26.45;;
54517;SDS011;40423;53.176;6.002;2023-05-15T02:05:11;38.50;;;28.73;;
54517;SDS011;40423;53.176;6.002;2023-05-15T02:07:38;39.92;;;28.70;;
54517;SDS011;40423;53.176;6.002;2023-05-15T02:10:06;43.50;;;29.75;;
54517;SDS011;40423;53.176;6.002;2023-05-15T02:12:33;42.30;;;29.73;;
54517;SDS011;40423;53.176;6.002;2023-05-15T02:14:59;42.30;;;29.25;;
54517;SDS011;40423;53.176;6.002;2023-05-15T02:17:27;37.53;;;28.42;;
54517;SDS011;40423;53.176;6.002;2023-05-15T02:19:53;36.38;;;27.40;;
54517;SDS011;40423;53.176;6.002;2023-05-15T02:22:19;37.90;;;28.17;;
54517;SDS011;40423;53.176;6.002;2023-05-15T02:24:45;39.35;;;27.55;;
54517;SDS011;40423;53.176;6.002;2023-05-15T02:27:12;41.90;;;28.17;;
54517;SDS011;40423;53.176;6.002;2023-05-15T02:32:49;41.40;;;28.40;;
54517;SDS011;40423;53.176;6.002;2023-05-15T02:35:35;37.95;;;26.02;;
54517;SDS011;40423;53.176;6.002;2023-05-15T02:38:10;39.20;;;26.83;;
54517;SDS011;40423;53.176;6.002;2023-05-15T02:40:39;29.98;;;23.48;;
54517;SDS011;40423;53.176;6.002;2023-05-15T02:43:06;34.55;;;25.23;;
54517;SDS011;40423;53.176;6.002;2023-05-15T02:45:34;29.40;;;22.40;;
54517;SDS011;40423;53.176;6.002;2023-05-15T02:48:01;32.25;;;22.88;;
54517;SDS011;40423;53.176;6.002;2023-05-15T02:50:27;28.98;;;21.63;;
54517;SDS011;40423;53.176;6.002;2023-05-15T02:53:06;28.95;;;20.88;;
54517;SDS011;40423;53.176;6.002;2023-05-15T02:55:35;25.65;;;20.20;;
54517;SDS011;40423;53.176;6.002;2023-05-15T02:58:02;24.30;;;19.70;;
54517;SDS011;40423;53.176;6.002;2023-05-15T03:00:28;25.38;;;19.25;;
54517;SDS011;40423;53.176;6.002;2023-05-15T03:02:54;29.38;;;19.15;;
54517;SDS011;40423;53.176;6.002;2023-05-15T03:05:20;24.40;;;19.85;;
54517;SDS011;40423;53.176;6.002;2023-05-15T03:07:45;24.38;;;19.70;;
54517;SDS011;40423;53.176;6.002;2023-05-15T03:10:11;21.65;;;16.83;;
54517;SDS011;40423;53.176;6.002;2023-05-15T03:12:37;23.42;;;18.63;;
54517;SDS011;40423;53.176;6.002;2023-05-15T03:15:04;23.77;;;19.20;;
54517;SDS011;40423;53.176;6.002;2023-05-15T03:17:30;25.38;;;18.55;;
54517;SDS011;40423;53.176;6.002;2023-05-15T03:19:56;25.20;;;17.63;;
54517;SDS011;40423;53.176;6.002;2023-05-15T03:22:22;24.17;;;18.00;;
54517;SDS011;40423;53.176;6.002;2023-05-15T03:24:47;22.45;;;18.42;;
54517;SDS011;40423;53.176;6.002;2023-05-15T03:27:14;23.05;;;17.63;;
54517;SDS011;40423;53.176;6.002;2023-05-15T03:29:40;23.67;;;19.65;;
54517;SDS011;40423;53.176;6.002;2023-05-15T03:32:06;24.20;;;18.67;;
54517;SDS011;40423;53.176;6.002;2023-05-15T03:34:32;27.08;;;20.77;;
54517;SDS011;40423;53.176;6.002;2023-05-15T03:36:58;27.17;;;20.63;;
54517;SDS011;40423;53.176;6.002;2023-05-15T03:39:23;28.15;;;21.38;;
54517;SDS011;40423;53.176;6.002;2023-05-15T03:41:49;29.38;;;21.92;;
54517;SDS011;40423;53.176;6.002;2023-05-15T03:44:15;24.90;;;20.80;;
54517;SDS011;40423;53.176;6.002;2023-05-15T03:46:40;31.88;;;22.67;;
54517;SDS011;40423;53.176;6.002;2023-05-15T03:49:06;28.23;;;22.67;;
54517;SDS011;40423;53.176;6.002;2023-05-15T03:51:32;27.77;;;21.65;;
54517;SDS011;40423;53.176;6.002;2023-05-15T03:53:58;26.50;;;21.30;;
54517;SDS011;40423;53.176;6.002;2023-05-15T03:56:24;30.15;;;22.73;;
54517;SDS011;40423;53.176;6.002;2023-05-15T03:58:50;27.65;;;21.75;;
54517;SDS011;40423;53.176;6.002;2023-05-15T04:01:17;26.27;;;20.60;;
54517;SDS011;40423;53.176;6.002;2023-05-15T04:03:43;31.92;;;23.90;;
54517;SDS011;40423;53.176;6.002;2023-05-15T04:06:08;26.55;;;21.88;;
54517;SDS011;40423;53.176;6.002;2023-05-15T04:08:34;29.75;;;23.60;;
54517;SDS011;40423;53.176;6.002;2023-05-15T04:11:00;27.55;;;22.45;;
54517;SDS011;40423;53.176;6.002;2023-05-15T04:13:25;26.10;;;21.58;;
54517;SDS011;40423;53.176;6.002;2023-05-15T04:15:51;28.25;;;20.70;;
54517;SDS011;40423;53.176;6.002;2023-05-15T04:18:18;27.02;;;21.58;;
54517;SDS011;40423;53.176;6.002;2023-05-15T04:20:43;33.92;;;26.63;;
54517;SDS011;40423;53.176;6.002;2023-05-15T04:23:09;30.42;;;23.90;;
54517;SDS011;40423;53.176;6.002;2023-05-15T04:25:35;28.70;;;23.33;;
54517;SDS011;40423;53.176;6.002;2023-05-15T04:28:02;27.45;;;23.10;;
54517;SDS011;40423;53.176;6.002;2023-05-15T04:30:28;32.92;;;24.88;;
54517;SDS011;40423;53.176;6.002;2023-05-15T04:32:53;33.47;;;25.95;;
54517;SDS011;40423;53.176;6.002;2023-05-15T04:35:19;28.98;;;24.75;;
54517;SDS011;40423;53.176;6.002;2023-05-15T04:37:45;27.35;;;21.08;;
54517;SDS011;40423;53.176;6.002;2023-05-15T04:40:11;28.50;;;24.55;;
54517;SDS011;40423;53.176;6.002;2023-05-15T04:42:39;27.17;;;22.80;;
54517;SDS011;40423;53.176;6.002;2023-05-15T04:45:05;27.10;;;21.67;;
54517;SDS011;40423;53.176;6.002;2023-05-15T04:47:31;35.70;;;26.60;;
54517;SDS011;40423;53.176;6.002;2023-05-15T04:49:57;26.15;;;21.58;;
54517;SDS011;40423;53.176;6.002;2023-05-15T04:52:22;28.52;;;22.83;;
54517;SDS011;40423;53.176;6.002;2023-05-15T04:54:48;28.05;;;22.55;;
54517;SDS011;40423;53.176;6.002;2023-05-15T04:57:15;30.20;;;23.05;;
54517;SDS011;40423;53.176;6.002;2023-05-15T04:59:41;28.30;;;22.45;;
54517;SDS011;40423;53.176;6.002;2023-05-15T05:02:08;30.70;;;22.67;;
54517;SDS011;40423;53.176;6.002;2023-05-15T05:04:34;30.02;;;22.70;;
54517;SDS011;40423;53.176;6.002;2023-05-15T05:06:59;28.45;;;23.13;;
54517;SDS011;40423;53.176;6.002;2023-05-15T05:09:28;29.27;;;23.05;;
54517;SDS011;40423;53.176;6.002;2023-05-15T05:11:54;32.10;;;21.92;;
54517;SDS011;40423;53.176;6.002;2023-05-15T05:14:20;27.80;;;21.40;;
54517;SDS011;40423;53.176;6.002;2023-05-15T05:16:46;30.50;;;19.35;;
54517;SDS011;40423;53.176;6.002;2023-05-15T05:19:11;22.52;;;18.92;;
54517;SDS011;40423;53.176;6.002;2023-05-15T05:21:37;26.63;;;21.85;;
54517;SDS011;40423;53.176;6.002;2023-05-15T05:24:03;24.92;;;18.70;;
54517;SDS011;40423;53.176;6.002;2023-05-15T05:26:29;24.42;;;19.25;;
54517;SDS011;40423;53.176;6.002;2023-05-15T05:28:54;22.35;;;17.80;;
54517;SDS011;40423;53.176;6.002;2023-05-15T05:31:20;26.58;;;22.33;;
54517;SDS011;40423;53.176;6.002;2023-05-15T05:33:46;27.48;;;21.27;;
54517;SDS011;40423;53.176;6.002;2023-05-15T05:36:13;24.05;;;18.70;;
54517;SDS011;40423;53.176;6.002;2023-05-15T05:38:40;25.85;;;20.40;;
54517;SDS011;40423;53.176;6.002;2023-05-15T05:41:06;26.55;;;20.50;;
54517;SDS011;40423;53.176;6.002;2023-05-15T05:43:32;26.88;;;20.70;;
54517;SDS011;40423;53.176;6.002;2023-05-15T05:45:58;23.90;;;18.77;;
54517;SDS011;40423;53.176;6.002;2023-05-15T05:48:24;23.05;;;20.02;;
54517;SDS011;40423;53.176;6.002;2023-05-15T05:50:50;29.77;;;21.92;;
54517;SDS011;40423;53.176;6.002;2023-05-15T05:53:16;28.73;;;22.08;;
54517;SDS011;40423;53.176;6.002;2023-05-15T05:55:42;27.15;;;22.73;;
54517;SDS011;40423;53.176;6.002;2023-05-15T05:58:08;24.98;;;20.70;;
54517;SDS011;40423;53.176;6.002;2023-05-15T06:00:34;26.88;;;22.25;;
54517;SDS011;40423;53.176;6.002;2023-05-15T06:03:00;22.73;;;18.52;;
54517;SDS011;40423;53.176;6.002;2023-05-15T06:05:26;27.70;;;21.38;;
54517;SDS011;40423;53.176;6.002;2023-05-15T06:07:53;24.08;;;20.45;;
54517;SDS011;40423;53.176;6.002;2023-05-15T06:10:19;26.15;;;20.10;;
54517;SDS011;40423;53.176;6.002;2023-05-15T06:12:46;23.73;;;18.85;;
54517;SDS011;40423;53.176;6.002;2023-05-15T06:15:12;23.23;;;19.30;;
54517;SDS011;40423;53.176;6.002;2023-05-15T06:17:38;23.77;;;18.67;;
54517;SDS011;40423;53.176;6.002;2023-05-15T06:20:04;19.88;;;17.40;;
54517;SDS011;40423;53.176;6.002;2023-05-15T06:22:32;23.85;;;20.08;;
54517;SDS011;40423;53.176;6.002;2023-05-15T06:24:58;26.08;;;20.85;;
54517;SDS011;40423;53.176;6.002;2023-05-15T06:27:24;23.30;;;19.67;;
54517;SDS011;40423;53.176;6.002;2023-05-15T06:29:50;23.63;;;19.35;;
54517;SDS011;40423;53.176;6.002;2023-05-15T06:32:16;23.42;;;20.60;;
54517;SDS011;40423;53.176;6.002;2023-05-15T06:34:42;23.88;;;19.83;;
54517;SDS011;40423;53.176;6.002;2023-05-15T06:37:08;24.50;;;20.88;;
54517;SDS011;40423;53.176;6.002;2023-05-15T06:39:33;24.85;;;20.33;;
54517;SDS011;40423;53.176;6.002;2023-05-15T06:41:59;21.33;;;18.90;;
54517;SDS011;40423;53.176;6.002;2023-05-15T06:44:31;21.02;;;18.48;;
54517;SDS011;40423;53.176;6.002;2023-05-15T06:46:57;24.15;;;18.20;;
54517;SDS011;40423;53.176;6.002;2023-05-15T06:49:23;21.98;;;18.23;;
54517;SDS011;40423;53.176;6.002;2023-05-15T06:51:49;19.40;;;17.33;;
54517;SDS011;40423;53.176;6.002;2023-05-15T06:54:16;19.30;;;16.58;;
54517;SDS011;40423;53.176;6.002;2023-05-15T06:56:42;20.40;;;16.55;;
54517;SDS011;40423;53.176;6.002;2023-05-15T06:59:08;18.70;;;16.80;;
54517;SDS011;40423;53.176;6.002;2023-05-15T07:01:34;20.90;;;18.63;;
54517;SDS011;40423;53.176;6.002;2023-05-15T07:03:59;18.35;;;16.10;;
54517;SDS011;40423;53.176;6.002;2023-05-15T07:06:25;19.33;;;15.90;;
54517;SDS011;40423;53.176;6.002;2023-05-15T07:08:51;18.08;;;16.15;;
54517;SDS011;40423;53.176;6.002;2023-05-15T07:11:19;16.30;;;14.60;;
54517;SDS011;40423;53.176;6.002;2023-05-15T07:13:46;16.50;;;14.80;;
54517;SDS011;40423;53.176;6.002;2023-05-15T07:16:11;17.70;;;14.40;;
54517;SDS011;40423;53.176;6.002;2023-05-15T07:18:37;19.05;;;15.07;;
54517;SDS011;40423;53.176;6.002;2023-05-15T07:21:03;18.33;;;14.80;;
54517;SDS011;40423;53.176;6.002;2023-05-15T07:23:31;18.17;;;15.20;;
54517;SDS011;40423;53.176;6.002;2023-05-15T07:25:57;18.38;;;15.18;;
54517;SDS011;40423;53.176;6.002;2023-05-15T07:28:23;17.58;;;13.90;;
54517;SDS011;40423;53.176;6.002;2023-05-15T07:30:49;17.13;;;14.18;;
54517;SDS011;40423;53.176;6.002;2023-05-15T07:33:15;15.70;;;13.95;;
54517;SDS011;40423;53.176;6.002;2023-05-15T07:35:40;17.58;;;14.35;;
54517;SDS011;40423;53.176;6.002;2023-05-15T07:38:06;21.70;;;15.50;;
54517;SDS011;40423;53.176;6.002;2023-05-15T07:40:32;16.88;;;14.25;;
54517;SDS011;40423;53.176;6.002;2023-05-15T07:42:58;16.00;;;14.05;;
54517;SDS011;40423;53.176;6.002;2023-05-15T07:45:24;17.50;;;15.63;;
54517;SDS011;40423;53.176;6.002;2023-05-15T07:47:49;18.95;;;15.48;;
54517;SDS011;40423;53.176;6.002;2023-05-15T07:50:15;16.65;;;14.95;;
54517;SDS011;40423;53.176;6.002;2023-05-15T07:52:41;17.25;;;15.43;;
54517;SDS011;40423;53.176;6.002;2023-05-15T07:55:08;17.33;;;15.45;;
54517;SDS011;40423;53.176;6.002;2023-05-15T07:57:34;15.52;;;13.85;;
54517;SDS011;40423;53.176;6.002;2023-05-15T08:00:00;16.10;;;14.40;;
54517;SDS011;40423;53.176;6.002;2023-05-15T08:02:35;17.85;;;14.32;;
54517;SDS011;40423;53.176;6.002;2023-05-15T08:05:01;18.27;;;15.15;;
54517;SDS011;40423;53.176;6.002;2023-05-15T08:07:29;17.92;;;13.77;;
54517;SDS011;40423;53.176;6.002;2023-05-15T08:09:55;17.23;;;13.85;;
54517;SDS011;40423;53.176;6.002;2023-05-15T08:12:21;15.85;;;13.55;;
54517;SDS011;40423;53.176;6.002;2023-05-15T08:14:51;13.50;;;11.55;;
54517;SDS011;40423;53.176;6.002;2023-05-15T08:17:18;15.27;;;13.57;;
54517;SDS011;40423;53.176;6.002;2023-05-15T08:19:45;20.65;;;14.77;;
54517;SDS011;40423;53.176;6.002;2023-05-15T08:22:11;15.70;;;14.05;;
54517;SDS011;40423;53.176;6.002;2023-05-15T08:24:37;16.17;;;14.50;;
54517;SDS011;40423;53.176;6.002;2023-05-15T08:27:06;19.45;;;13.68;;
54517;SDS011;40423;53.176;6.002;2023-05-15T08:29:33;14.57;;;12.77;;
54517;SDS011;40423;53.176;6.002;2023-05-15T08:32:00;14.70;;;12.15;;
54517;SDS011;40423;53.176;6.002;2023-05-15T08:34:26;15.48;;;13.88;;
54517;SDS011;40423;53.176;6.002;2023-05-15T08:36:51;15.40;;;13.60;;
54517;SDS011;40423;53.176;6.002;2023-05-15T08:39:17;16.38;;;13.23;;
54517;SDS011;40423;53.176;6.002;2023-05-15T08:44:33;14.95;;;13.15;;
54517;SDS011;40423;53.176;6.002;2023-05-15T08:46:59;17.60;;;14.25;;
54517;SDS011;40423;53.176;6.002;2023-05-15T08:49:35;16.40;;;13.60;;
54517;SDS011;40423;53.176;6.002;2023-05-15T08:52:18;15.25;;;13.18;;
54517;SDS011;40423;53.176;6.002;2023-05-15T08:54:44;15.57;;;13.52;;
54517;SDS011;40423;53.176;6.002;2023-05-15T08:57:11;16.38;;;13.73;;
54517;SDS011;40423;53.176;6.002;2023-05-15T08:59:38;15.77;;;14.18;;
54517;SDS011;40423;53.176;6.002;2023-05-15T09:02:04;16.70;;;14.50;;
54517;SDS011;40423;53.176;6.002;2023-05-15T09:04:30;18.17;;;15.90;;
54517;SDS011;40423;53.176;6.002;2023-05-15T09:06:57;16.95;;;15.02;;
54517;SDS011;40423;53.176;6.002;2023-05-15T09:09:24;17.42;;;15.50;;
54517;SDS011;40423;53.176;6.002;2023-05-15T09:11:52;17.67;;;15.80;;
54517;SDS011;40423;53.176;6.002;2023-05-15T09:14:18;19.20;;;16.63;;
54517;SDS011;40423;53.176;6.002;2023-05-15T09:16:44;16.02;;;14.43;;
54517;SDS011;40423;53.176;6.002;2023-05-15T09:19:13;17.30;;;14.45;;
54517;SDS011;40423;53.176;6.002;2023-05-15T09:21:39;16.98;;;14.82;;
54517;SDS011;40423;53.176;6.002;2023-05-15T09:29:30;17.00;;;14.05;;
54517;SDS011;40423;53.176;6.002;2023-05-15T09:32:01;16.13;;;12.93;;
54517;SDS011;40423;53.176;6.002;2023-05-15T09:34:28;14.55;;;12.50;;
54517;SDS011;40423;53.176;6.002;2023-05-15T09:37:03;17.02;;;12.88;;
54517;SDS011;40423;53.176;6.002;2023-05-15T09:39:31;13.45;;;11.20;;
54517;SDS011;40423;53.176;6.002;2023-05-15T09:42:07;13.73;;;11.65;;
54517;SDS011;40423;53.176;6.002;2023-05-15T09:44:35;15.50;;;12.88;;
54517;SDS011;40423;53.176;6.002;2023-05-15T09:47:05;17.20;;;12.13;;
54517;SDS011;40423;53.176;6.002;2023-05-15T09:49:31;14.82;;;13.10;;
54517;SDS011;40423;53.176;6.002;2023-05-15T09:52:00;12.55;;;11.25;;
54517;SDS011;40423;53.176;6.002;2023-05-15T09:54:26;13.23;;;11.35;;
54517;SDS011;40423;53.176;6.002;2023-05-15T09:56:54;13.55;;;12.15;;
54517;SDS011;40423;53.176;6.002;2023-05-15T09:59:21;14.15;;;11.27;;
54517;SDS011;40423;53.176;6.002;2023-05-15T10:01:50;14.13;;;12.55;;
54517;SDS011;40423;53.176;6.002;2023-05-15T10:04:16;13.88;;;12.20;;
54517;SDS011;40423;53.176;6.002;2023-05-15T10:06:44;14.82;;;12.95;;
54517;SDS011;40423;53.176;6.002;2023-05-15T10:09:11;14.13;;;11.80;;
54517;SDS011;40423;53.176;6.002;2023-05-15T10:11:39;17.25;;;12.98;;
54517;SDS011;40423;53.176;6.002;2023-05-15T10:14:11;14.35;;;12.25;;
54517;SDS011;40423;53.176;6.002;2023-05-15T10:16:38;13.73;;;11.48;;
54517;SDS011;40423;53.176;6.002;2023-05-15T10:19:05;13.70;;;11.45;;
54517;SDS011;40423;53.176;6.002;2023-05-15T10:21:35;14.35;;;11.65;;
54517;SDS011;40423;53.176;6.002;2023-05-15T10:24:02;13.35;;;11.85;;
54517;SDS011;40423;53.176;6.002;2023-05-15T10:26:34;13.88;;;12.38;;
54517;SDS011;40423;53.176;6.002;2023-05-15T10:29:03;15.10;;;13.50;;
54517;SDS011;40423;53.176;6.002;2023-05-15T10:31:32;13.77;;;12.32;;
54517;SDS011;40423;53.176;6.002;2023-05-15T10:34:00;13.35;;;12.07;;
54517;SDS011;40423;53.176;6.002;2023-05-15T10:36:26;15.88;;;13.68;;
54517;SDS011;40423;53.176;6.002;2023-05-15T10:38:52;13.32;;;12.02;;
54517;SDS011;40423;53.176;6.002;2023-05-15T10:41:19;13.95;;;11.15;;
54517;SDS011;40423;53.176;6.002;2023-05-15T10:43:45;16.88;;;12.82;;
54517;SDS011;40423;53.176;6.002;2023-05-15T10:46:13;14.00;;;11.32;;
54517;SDS011;40423;53.176;6.002;2023-05-15T10:48:40;12.13;;;10.80;;
54517;SDS011;40423;53.176;6.002;2023-05-15T10:53:52;13.75;;;10.85;;
54517;SDS011;40423;53.176;6.002;2023-05-15T10:56:18;13.27;;;11.40;;
54517;SDS011;40423;53.176;6.002;2023-05-15T10:58:48;12.68;;;11.35;;
54517;SDS011;40423;53.176;6.002;2023-05-15T11:01:28;13.52;;;11.50;;
54517;SDS011;40423;53.176;6.002;2023-05-15T11:06:44;11.10;;;8.90;;
54517;SDS011;40423;53.176;6.002;2023-05-15T11:14:17;9.65;;;8.43;;
54517;SDS011;40423;53.176;6.002;2023-05-15T11:21:59;8.95;;;7.38;;
54517;SDS011;40423;53.176;6.002;2023-05-15T11:24:28;8.55;;;7.47;;
54517;SDS011;40423;53.176;6.002;2023-05-15T11:26:58;8.35;;;7.43;;
54517;SDS011;40423;53.176;6.002;2023-05-15T11:29:28;8.52;;;6.95;;
54517;SDS011;40423;53.176;6.002;2023-05-15T11:31:54;8.23;;;6.88;;
54517;SDS011;40423;53.176;6.002;2023-05-15T11:34:32;8.10;;;6.30;;
54517;SDS011;40423;53.176;6.002;2023-05-15T11:36:58;8.02;;;6.30;;
54517;SDS011;40423;53.176;6.002;2023-05-15T11:39:25;8.00;;;5.88;;
54517;SDS011;40423;53.176;6.002;2023-05-15T11:41:54;11.48;;;6.60;;
54517;SDS011;40423;53.176;6.002;2023-05-15T11:44:20;7.53;;;6.38;;
54517;SDS011;40423;53.176;6.002;2023-05-15T11:46:47;7.93;;;6.90;;
54517;SDS011;40423;53.176;6.002;2023-05-15T11:49:15;9.15;;;6.85;;
54517;SDS011;40423;53.176;6.002;2023-05-15T11:51:43;8.82;;;7.53;;
54517;SDS011;40423;53.176;6.002;2023-05-15T11:54:11;7.85;;;6.10;;
54517;SDS011;40423;53.176;6.002;2023-05-15T11:56:42;9.93;;;6.70;;
54517;SDS011;40423;53.176;6.002;2023-05-15T11:59:09;8.55;;;7.57;;
54517;SDS011;40423;53.176;6.002;2023-05-15T12:01:42;9.23;;;7.22;;
54517;SDS011;40423;53.176;6.002;2023-05-15T12:04:14;8.52;;;7.70;;
54517;SDS011;40423;53.176;6.002;2023-05-15T12:06:41;10.90;;;8.40;;
54517;SDS011;40423;53.176;6.002;2023-05-15T12:09:15;9.65;;;7.43;;
54517;SDS011;40423;53.176;6.002;2023-05-15T12:12:01;9.20;;;7.93;;
54517;SDS011;40423;53.176;6.002;2023-05-15T12:14:29;12.65;;;8.75;;
54517;SDS011;40423;53.176;6.002;2023-05-15T12:16:58;9.93;;;8.82;;
54517;SDS011;40423;53.176;6.002;2023-05-15T12:19:27;10.02;;;9.10;;
54517;SDS011;40423;53.176;6.002;2023-05-15T12:21:54;10.02;;;8.75;;
54517;SDS011;40423;53.176;6.002;2023-05-15T12:24:19;11.75;;;10.52;;
54517;SDS011;40423;53.176;6.002;2023-05-15T12:26:45;14.25;;;10.85;;
54517;SDS011;40423;53.176;6.002;2023-05-15T12:29:12;13.40;;;9.98;;
54517;SDS011;40423;53.176;6.002;2023-05-15T12:31:38;12.05;;;10.75;;
54517;SDS011;40423;53.176;6.002;2023-05-15T12:34:04;13.68;;;11.95;;
54517;SDS011;40423;53.176;6.002;2023-05-15T12:36:31;13.77;;;12.07;;
54517;SDS011;40423;53.176;6.002;2023-05-15T12:38:57;13.05;;;11.25;;
54517;SDS011;40423;53.176;6.002;2023-05-15T12:41:30;12.15;;;10.95;;
54517;SDS011;40423;53.176;6.002;2023-05-15T12:43:56;12.30;;;11.10;;
54517;SDS011;40423;53.176;6.002;2023-05-15T12:46:22;12.23;;;10.93;;
54517;SDS011;40423;53.176;6.002;2023-05-15T12:48:57;11.32;;;10.13;;
54517;SDS011;40423;53.176;6.002;2023-05-15T12:51:23;13.40;;;12.10;;
54517;SDS011;40423;53.176;6.002;2023-05-15T12:53:51;12.77;;;11.43;;
54517;SDS011;40423;53.176;6.002;2023-05-15T13:05:03;13.85;;;10.93;;
54517;SDS011;40423;53.176;6.002;2023-05-15T13:07:29;11.77;;;10.57;;
54517;SDS011;40423;53.176;6.002;2023-05-15T13:10:05;11.70;;;10.50;;
54517;SDS011;40423;53.176;6.002;2023-05-15T13:12:35;12.48;;;11.05;;
54517;SDS011;40423;53.176;6.002;2023-05-15T13:15:02;16.25;;;12.65;;
54517;SDS011;40423;53.176;6.002;2023-05-15T13:17:29;12.95;;;11.65;;
54517;SDS011;40423;53.176;6.002;2023-05-15T13:19:54;13.15;;;11.77;;
54517;SDS011;40423;53.176;6.002;2023-05-15T13:22:20;15.70;;;12.63;;
54517;SDS011;40423;53.176;6.002;2023-05-15T13:24:46;15.52;;;12.68;;
54517;SDS011;40423;53.176;6.002;2023-05-15T13:27:12;13.40;;;11.75;;
54517;SDS011;40423;53.176;6.002;2023-05-15T13:29:38;18.73;;;11.85;;
54517;SDS011;40423;53.176;6.002;2023-05-15T13:32:04;12.75;;;11.20;;
54517;SDS011;40423;53.176;6.002;2023-05-15T13:34:30;11.55;;;10.35;;
54517;SDS011;40423;53.176;6.002;2023-05-15T13:36:55;11.75;;;10.00;;
54517;SDS011;40423;53.176;6.002;2023-05-15T13:39:21;11.65;;;9.55;;
54517;SDS011;40423;53.176;6.002;2023-05-15T13:41:47;10.98;;;9.75;;
54517;SDS011;40423;53.176;6.002;2023-05-15T13:44:13;10.68;;;8.63;;
54517;SDS011;40423;53.176;6.002;2023-05-15T13:46:39;10.82;;;8.32;;
54517;SDS011;40423;53.176;6.002;2023-05-15T13:49:04;12.05;;;8.30;;
54517;SDS011;40423;53.176;6.002;2023-05-15T13:51:30;10.25;;;8.75;;
54517;SDS011;40423;53.176;6.002;2023-05-15T13:53:56;9.73;;;8.73;;
54517;SDS011;40423;53.176;6.002;2023-05-15T13:56:22;10.13;;;8.20;;
54517;SDS011;40423;53.176;6.002;2023-05-15T13:58:47;13.77;;;9.85;;
54517;SDS011;40423;53.176;6.002;2023-05-15T14:01:13;12.02;;;9.07;;
54517;SDS011;40423;53.176;6.002;2023-05-15T14:03:39;9.80;;;8.43;;
54517;SDS011;40423;53.176;6.002;2023-05-15T14:06:05;12.07;;;9.77;;
54517;SDS011;40423;53.176;6.002;2023-05-15T14:08:31;10.30;;;8.48;;
54517;SDS011;40423;53.176;6.002;2023-05-15T14:10:56;14.10;;;8.43;;
54517;SDS011;40423;53.176;6.002;2023-05-15T14:13:22;11.02;;;8.80;;
54517;SDS011;40423;53.176;6.002;2023-05-15T14:15:48;9.15;;;8.25;;
54517;SDS011;40423;53.176;6.002;2023-05-15T14:18:14;9.48;;;7.93;;
54517;SDS011;40423;53.176;6.002;2023-05-15T14:20:40;10.73;;;8.45;;
54517;SDS011;40423;53.176;6.002;2023-05-15T14:23:05;11.82;;;8.35;;
54517;SDS011;40423;53.176;6.002;2023-05-15T14:25:31;10.82;;;8.10;;
54517;SDS011;40423;53.176;6.002;2023-05-15T14:27:57;10.20;;;8.38;;
54517;SDS011;40423;53.176;6.002;2023-05-15T14:30:23;11.90;;;8.35;;
54517;SDS011;40423;53.176;6.002;2023-05-15T14:32:48;10.65;;;8.32;;
54517;SDS011;40423;53.176;6.002;2023-05-15T14:35:17;10.90;;;8.68;;
54517;SDS011;40423;53.176;6.002;2023-05-15T14:37:43;9.93;;;8.57;;
54517;SDS011;40423;53.176;6.002;2023-05-15T14:40:09;10.40;;;9.02;;
54517;SDS011;40423;53.176;6.002;2023-05-15T14:42:35;8.32;;;7.18;;
54517;SDS011;40423;53.176;6.002;2023-05-15T14:45:01;9.95;;;7.85;;
54517;SDS011;40423;53.176;6.002;2023-05-15T14:47:27;8.90;;;7.78;;
54517;SDS011;40423;53.176;6.002;2023-05-15T14:49:54;10.20;;;7.65;;
54517;SDS011;40423;53.176;6.002;2023-05-15T14:52:19;10.30;;;8.65;;
54517;SDS011;40423;53.176;6.002;2023-05-15T14:54:45;8.98;;;8.05;;
54517;SDS011;40423;53.176;6.002;2023-05-15T14:57:11;8.23;;;6.55;;
54517;SDS011;40423;53.176;6.002;2023-05-15T14:59:37;8.50;;;7.07;;
54517;SDS011;40423;53.176;6.002;2023-05-15T15:02:02;9.23;;;8.00;;
54517;SDS011;40423;53.176;6.002;2023-05-15T15:04:29;9.05;;;7.50;;
54517;SDS011;40423;53.176;6.002;2023-05-15T15:06:58;10.18;;;7.25;;
54517;SDS011;40423;53.176;6.002;2023-05-15T15:09:27;8.30;;;6.25;;
54517;SDS011;40423;53.176;6.002;2023-05-15T15:11:52;8.15;;;7.20;;
54517;SDS011;40423;53.176;6.002;2023-05-15T15:14:18;9.55;;;7.78;;